createdAt,value
2023-04-08T00:03:02.359Z,1.00
2023-04-08T00:06:50.343Z,2.60
2023-04-08T00:10:23.281Z,98.10
2023-04-08T00:17:49.842Z,99.90
2023-04-08T00:21:28.122Z,99.90
2023-04-08T00:25:05.077Z,99.90
2023-04-08T00:28:41.154Z,99.90
2023-04-08T00:32:15.345Z,99.90
2023-04-08T00:35:40.002Z,99.90
2023-04-08T00:39:06.806Z,99.90
2023-04-08T00:42:43.188Z,99.90
2023-04-08T00:46:13.120Z,99.90
2023-04-08T00:53:36.129Z,99.90
2023-04-08T00:57:04.088Z,99.90
2023-04-08T01:05:00.032Z,99.90
2023-04-08T01:08:28.489Z,99.90
2023-04-08T01:12:01.344Z,99.90
2023-04-08T01:15:49.656Z,99.90
2023-04-08T01:24:34.421Z,99.90
2023-04-08T01:28:37.039Z,99.90
2023-04-08T01:32:31.118Z,99.90
2023-04-08T01:36:09.936Z,1.00
2023-04-08T01:39:57.085Z,1.00
2023-04-08T01:43:26.108Z,1.00
2023-04-08T01:47:05.758Z,1.00
2023-04-08T01:50:40.061Z,1.00
2023-04-08T01:54:07.421Z,1.00
2023-04-08T01:57:43.074Z,1.00
2023-04-08T02:01:25.292Z,1.00
2023-04-08T02:05:16.981Z,1.00
2023-04-08T02:09:10.100Z,1.00
2023-04-08T02:13:24.250Z,1.00
2023-04-08T02:17:35.745Z,1.00
2023-04-08T02:21:14.161Z,1.00
2023-04-08T02:25:16.397Z,1.00
2023-04-08T02:28:57.431Z,1.00
2023-04-08T02:32:28.768Z,1.00
2023-04-08T02:36:13.622Z,1.00
2023-04-08T02:39:55.952Z,99.90
2023-04-08T02:44:01.418Z,20.00
2023-04-08T02:47:39.746Z,1.00
2023-04-08T02:51:11.654Z,99.90
2023-04-08T02:55:01.993Z,99.90
2023-04-08T02:58:47.486Z,1.00
2023-04-08T03:02:44.154Z,1.00
2023-04-08T03:06:23.380Z,1.00
2023-04-08T03:10:04.060Z,99.90
2023-04-08T03:14:00.775Z,99.90
2023-04-08T03:17:36.508Z,99.90
2023-04-08T03:21:10.441Z,99.90
2023-04-08T03:24:36.925Z,99.90
2023-04-08T03:31:58.783Z,99.90
2023-04-08T03:35:35.080Z,99.90
2023-04-08T03:39:14.082Z,1.00
2023-04-08T03:42:50.349Z,1.00
2023-04-08T03:46:26.835Z,99.90
2023-04-08T03:49:56.711Z,99.90
2023-04-08T03:53:44.334Z,99.90
2023-04-08T03:57:23.674Z,99.90
2023-04-08T04:00:52.064Z,99.90
2023-04-08T04:04:24.102Z,1.00
2023-04-08T04:07:56.489Z,1.00
2023-04-08T04:11:27.546Z,1.00
2023-04-08T04:15:06.909Z,1.00
2023-04-08T04:18:37.848Z,5.10
2023-04-08T04:22:12.198Z,99.90
2023-04-08T04:25:36.941Z,99.90
2023-04-08T04:33:09.913Z,99.90
2023-04-08T04:37:04.910Z,99.90
2023-04-08T04:40:36.042Z,99.90
2023-04-08T04:44:13.753Z,99.90
2023-04-08T04:48:08.264Z,83.90
2023-04-08T04:51:38.365Z,1.00
2023-04-08T04:55:08.589Z,1.00
2023-04-08T04:58:35.066Z,1.00
2023-04-08T05:02:06.161Z,1.00
2023-04-08T05:05:41.130Z,16.70
2023-04-08T05:09:05.894Z,1.00
2023-04-08T05:12:33.893Z,1.00
2023-04-08T05:15:59.454Z,1.00
2023-04-08T05:19:23.164Z,99.90
2023-04-08T05:22:52.784Z,99.90
2023-04-08T05:26:26.731Z,99.90
2023-04-08T05:30:08.657Z,99.90
2023-04-08T05:33:41.176Z,99.90
2023-04-08T05:41:15.858Z,99.90
2023-04-08T05:44:54.690Z,99.90
2023-04-08T05:48:24.310Z,99.90
2023-04-08T05:51:49.418Z,99.90
2023-04-08T05:55:25.364Z,99.90
2023-04-08T05:58:52.192Z,99.90
2023-04-08T06:02:18.435Z,99.90
2023-04-08T06:05:45.758Z,99.90
2023-04-08T06:09:19.380Z,99.90
2023-04-08T06:12:49.597Z,99.90
2023-04-08T06:16:45.118Z,99.90
2023-04-08T06:24:13.223Z,99.90
2023-04-08T06:28:01.330Z,79.80
2023-04-08T06:31:39.695Z,65.50
2023-04-08T06:35:26.940Z,52.20
2023-04-08T06:39:13.037Z,16.00
2023-04-08T06:43:06.671Z,1.00
2023-04-08T06:46:43.769Z,1.00
2023-04-08T06:50:42.159Z,1.00
2023-04-08T06:54:21.924Z,1.00
2023-04-08T06:57:52.130Z,1.00
2023-04-08T07:01:43.077Z,1.00
2023-04-08T07:05:15.144Z,1.00
2023-04-08T07:08:37.971Z,1.00
2023-04-08T07:12:07.485Z,1.00
2023-04-08T07:15:30.972Z,1.00
2023-04-08T07:18:53.746Z,1.00
2023-04-08T07:22:16.577Z,1.00
2023-04-08T07:26:27.270Z,1.00
2023-04-08T07:31:09.513Z,1.00
2023-04-08T07:35:14.538Z,1.00
2023-04-08T07:39:18.343Z,1.00
2023-04-08T07:43:25.043Z,1.00
2023-04-08T07:51:08.030Z,1.00
2023-04-08T07:54:53.104Z,1.00
2023-04-08T07:59:19.483Z,1.00
2023-04-08T08:06:55.267Z,1.00
2023-04-08T08:15:13.719Z,1.00
2023-04-08T08:18:48.479Z,1.00
2023-04-08T08:22:57.702Z,1.00
2023-04-08T08:30:57.113Z,1.00
2023-04-08T08:34:56.929Z,1.00
2023-04-08T08:38:58.974Z,1.00
2023-04-08T08:47:04.740Z,1.00
2023-04-08T08:51:40.374Z,1.00
2023-04-08T08:56:20.856Z,1.00
2023-04-08T09:00:06.552Z,1.00
2023-04-08T09:08:45.525Z,99.90
2023-04-08T09:12:40.414Z,99.90
2023-04-08T09:16:39.234Z,99.90
2023-04-08T09:20:23.700Z,99.90
2023-04-08T09:24:27.714Z,99.90
2023-04-08T09:28:44.283Z,99.90
2023-04-08T09:32:24.551Z,99.90
2023-04-08T09:40:17.420Z,99.90
2023-04-08T09:44:54.043Z,99.90
2023-04-08T09:53:03.135Z,99.90
2023-04-08T09:57:11.271Z,99.90
2023-04-08T10:01:54.713Z,99.90
2023-04-08T10:05:19.447Z,99.90
2023-04-08T10:09:53.416Z,99.90
2023-04-08T10:18:54.626Z,99.90
2023-04-08T10:23:40.630Z,99.90
2023-04-08T10:42:12.120Z,99.90
2023-04-08T10:46:06.713Z,99.90
2023-04-08T10:50:26.117Z,99.90
2023-04-08T10:54:07.403Z,99.90
2023-04-08T10:57:38.800Z,99.90
2023-04-08T11:01:34.779Z,99.90
2023-04-08T11:05:48.629Z,99.90
2023-04-08T11:09:32.844Z,99.90
2023-04-08T11:13:04.076Z,99.90
2023-04-08T11:25:35.087Z,99.90
2023-04-08T11:29:17.149Z,99.90
2023-04-08T11:32:43.491Z,99.90
2023-04-08T11:36:32.303Z,99.90
2023-04-08T11:40:29.068Z,99.90
2023-04-08T11:44:46.561Z,99.90
2023-04-08T11:48:18.277Z,99.90
2023-04-08T11:56:14.618Z,99.90
2023-04-08T11:59:50.011Z,99.90
2023-04-08T12:04:11.875Z,99.90
2023-04-08T12:08:33.256Z,99.90
2023-04-08T12:12:18.245Z,99.90
2023-04-08T12:16:06.694Z,99.90
2023-04-08T12:20:13.624Z,99.90
2023-04-08T12:24:04.667Z,99.90
2023-04-08T12:28:23.118Z,99.90
2023-04-08T12:53:00.679Z,99.90
2023-04-08T12:56:17.154Z,99.90
2023-04-08T13:00:04.540Z,99.90
2023-04-08T13:08:47.391Z,99.90
2023-04-08T13:17:48.848Z,99.90
2023-04-08T13:32:49.948Z,99.90
2023-04-08T13:42:12.004Z,99.90
2023-04-08T14:01:47.065Z,99.90
2023-04-08T14:14:11.773Z,99.90
2023-04-08T14:19:26.944Z,99.90
2023-04-08T14:22:26.994Z,99.90
2023-04-08T14:40:26.824Z,99.90
2023-04-08T14:44:23.631Z,99.90
2023-04-08T15:16:39.912Z,99.90
2023-04-08T15:21:12.608Z,99.90
2023-04-08T15:24:46.309Z,99.90
2023-04-08T15:28:10.288Z,99.90
2023-04-08T15:37:25.583Z,99.90
2023-04-08T15:41:50.437Z,99.90
2023-04-08T15:59:53.447Z,99.90
2023-04-08T16:04:27.815Z,99.90
2023-04-08T16:08:35.109Z,99.90
2023-04-08T16:17:43.299Z,99.90
2023-04-08T16:31:56.901Z,1.00
2023-04-08T16:36:02.063Z,1.00
2023-04-08T16:40:03.841Z,1.00
2023-04-08T16:44:16.013Z,1.00
2023-04-08T16:48:10.408Z,1.00
2023-04-08T16:52:20.347Z,1.00
2023-04-08T16:56:16.081Z,1.00
2023-04-08T17:00:11.566Z,1.00
2023-04-08T17:03:56.455Z,1.00
2023-04-08T17:11:33.083Z,1.00
2023-04-08T17:15:19.399Z,1.00
2023-04-08T17:19:20.669Z,1.00
2023-04-08T17:22:46.076Z,1.00
2023-04-08T17:30:10.143Z,1.00
2023-04-08T17:46:20.118Z,99.90
2023-04-08T17:49:45.360Z,99.90
2023-04-08T17:53:53.931Z,99.90
2023-04-08T17:57:36.178Z,1.00
2023-04-08T18:24:37.700Z,1.00
2023-04-08T18:28:00.059Z,1.00
2023-04-08T18:31:22.335Z,1.00
2023-04-08T18:34:56.588Z,1.00
2023-04-08T18:39:05.619Z,73.60
2023-04-08T18:42:44.045Z,99.90
2023-04-08T18:46:27.203Z,97.00
2023-04-08T18:50:07.663Z,99.90
2023-04-08T18:53:37.485Z,55.00
2023-04-08T18:57:03.478Z,51.00
2023-04-08T19:00:26.081Z,99.90
2023-04-08T19:03:48.268Z,99.90
2023-04-08T19:07:11.926Z,99.90
2023-04-08T19:10:37.529Z,79.30
2023-04-08T19:14:31.662Z,70.70
2023-04-08T19:17:54.481Z,45.30
2023-04-08T19:21:49.395Z,40.50
2023-04-08T19:25:48.038Z,97.10
2023-04-08T19:29:49.973Z,92.80
2023-04-08T19:33:58.874Z,99.90
2023-04-08T19:41:39.913Z,99.90
2023-04-08T19:45:14.918Z,99.90
2023-04-08T19:49:12.723Z,99.90
2023-04-08T19:52:36.122Z,99.90
2023-04-08T19:56:24.068Z,99.90
2023-04-08T20:04:23.584Z,99.90
2023-04-08T20:08:58.393Z,99.90
2023-04-08T20:21:18.888Z,99.90
2023-04-08T20:24:57.338Z,99.90
2023-04-08T20:32:41.697Z,99.90
2023-04-08T20:36:07.412Z,99.90
2023-04-08T20:39:43.632Z,99.90
2023-04-08T20:43:31.013Z,99.90
2023-04-08T20:50:53.630Z,99.90
2023-04-08T20:54:20.607Z,99.90
2023-04-08T20:57:44.733Z,99.90
2023-04-08T21:01:07.943Z,99.90
2023-04-08T21:04:42.481Z,99.90
2023-04-08T21:08:14.230Z,99.90
2023-04-08T21:11:43.598Z,99.90
2023-04-08T21:15:13.947Z,99.90
2023-04-08T21:18:40.246Z,99.90
2023-04-08T21:22:02.603Z,99.90
2023-04-08T21:25:50.846Z,99.90
2023-04-08T21:29:13.038Z,99.90
2023-04-08T21:32:40.767Z,99.90
2023-04-08T21:36:07.376Z,99.90
2023-04-08T21:39:49.116Z,99.90
2023-04-08T21:43:12.436Z,99.90
2023-04-08T21:46:34.916Z,99.90
2023-04-08T21:50:00.068Z,99.90
2023-04-08T21:57:27.137Z,99.90
2023-04-08T22:00:56.795Z,99.90
2023-04-08T22:04:36.988Z,99.90
2023-04-08T22:08:45.612Z,99.90
2023-04-08T22:18:28.102Z,99.90
2023-04-08T22:31:26.998Z,99.90
2023-04-08T22:35:26.699Z,99.90
2023-04-08T22:44:40.145Z,99.90
2023-04-08T22:49:01.041Z,99.90
2023-04-08T22:52:18.647Z,99.90
2023-04-08T23:01:12.499Z,99.90
2023-04-08T23:13:44.023Z,99.90
2023-04-08T23:43:20.160Z,99.90
2023-04-08T23:46:51.313Z,99.90
2023-04-08T23:50:13.400Z,99.90
2023-04-08T23:53:35.945Z,99.90
2023-04-08T23:56:58.063Z,99.90
